Time;durP1;ratioP1;P1;durP2;ratioP2;P2;SDS_P1;SDS_P2;PMS_P1;PMS_P2;Temp;Humidity;BMP_temperature;BMP_pressure;BME280_temperature;BME280_humidity;BME280_pressure;Samples;Min_cycle;Max_cycle;Signal;HPM_P1;HPM_P2
2020/09/04 00:01:26;;;;;;;1.41;1.31;;;;;;;20.98;65.82;101093.92;;;;-58
2020/09/04 00:04:25;;;;;;;1.65;1.31;;;;;;;20.96;65.81;101090.31;;;;-58
2020/09/04 00:07:26;;;;;;;1.33;1.23;;;;;;;20.97;65.89;101092.42;;;;-58
2020/09/04 00:10:26;;;;;;;1.45;1.30;;;;;;;20.96;65.85;101083.55;;;;-58
2020/09/04 00:13:26;;;;;;;1.40;1.29;;;;;;;20.96;65.88;101079.94;;;;-58
2020/09/04 00:16:26;;;;;;;1.39;1.29;;;;;;;20.96;65.87;101079.61;;;;-58
2020/09/04 00:19:26;;;;;;;1.35;1.25;;;;;;;20.95;65.84;101080.34;;;;-58
2020/09/04 00:22:26;;;;;;;1.40;1.30;;;;;;;20.95;65.89;101072.69;;;;-58
2020/09/04 00:25:25;;;;;;;1.38;1.28;;;;;;;20.96;65.83;101071.58;;;;-58
2020/09/04 00:28:25;;;;;;;1.63;1.32;;;;;;;20.95;65.86;101066.58;;;;-58
2020/09/04 00:31:26;;;;;;;1.19;1.19;;;;;;;20.94;65.89;101063.30;;;;-58
2020/09/04 00:34:25;;;;;;;1.51;1.25;;;;;;;20.94;65.86;101060.87;;;;-58
2020/09/04 00:37:26;;;;;;;1.26;1.20;;;;;;;20.94;65.86;101062.75;;;;-58
2020/09/04 00:40:25;;;;;;;1.44;1.34;;;;;;;20.93;65.86;101057.92;;;;-58
2020/09/04 00:43:25;;;;;;;1.30;1.20;;;;;;;20.92;65.90;101053.85;;;;-58
2020/09/04 00:46:25;;;;;;;1.36;1.26;;;;;;;20.92;65.90;101051.33;;;;-58
2020/09/04 00:49:26;;;;;;;1.31;1.21;;;;;;;20.92;65.89;101047.25;;;;-58
2020/09/04 00:52:26;;;;;;;1.35;1.25;;;;;;;20.91;65.91;101047.06;;;;-58
2020/09/04 00:55:25;;;;;;;1.65;1.15;;;;;;;20.91;65.98;101037.45;;;;-58
2020/09/04 00:58:25;;;;;;;1.30;1.20;;;;;;;20.91;65.97;101033.95;;;;-58
2020/09/04 01:01:26;;;;;;;1.39;1.29;;;;;;;20.90;65.89;101030.45;;;;-58
2020/09/04 01:04:25;;;;;;;1.32;1.22;;;;;;;20.90;65.96;101028.90;;;;-58
2020/09/04 01:07:25;;;;;;;1.40;1.30;;;;;;;20.90;65.92;101027.84;;;;-58
2020/09/04 01:10:26;;;;;;;1.31;1.21;;;;;;;20.90;65.91;101032.97;;;;-58
2020/09/04 01:13:25;;;;;;;1.30;1.20;;;;;;;20.89;65.91;101032.63;;;;-58
2020/09/04 01:16:26;;;;;;;1.33;1.20;;;;;;;20.89;66.01;101034.17;;;;-58
2020/09/04 01:19:26;;;;;;;1.32;1.22;;;;;;;20.88;65.94;101032.22;;;;-58
2020/09/04 01:22:25;;;;;;;1.38;1.28;;;;;;;20.87;65.96;101030.16;;;;-58
2020/09/04 01:25:26;;;;;;;1.42;1.29;;;;;;;20.87;66.00;101027.55;;;;-58
2020/09/04 01:28:25;;;;;;;1.40;1.30;;;;;;;20.88;66.00;101033.69;;;;-58
2020/09/04 01:31:25;;;;;;;1.30;1.21;;;;;;;20.88;65.96;101038.17;;;;-58
2020/09/04 01:34:25;;;;;;;1.24;1.14;;;;;;;20.88;65.95;101039.47;;;;-58
2020/09/04 01:37:26;;;;;;;1.46;1.35;;;;;;;20.89;65.99;101049.33;;;;-58
2020/09/04 01:40:26;;;;;;;1.16;1.12;;;;;;;20.87;65.97;101050.93;;;;-58
2020/09/04 01:43:26;;;;;;;1.29;1.20;;;;;;;20.87;65.93;101054.11;;;;-58
2020/09/04 01:46:26;;;;;;;1.22;1.20;;;;;;;20.87;65.96;101055.98;;;;-58
2020/09/04 01:49:25;;;;;;;1.19;1.17;;;;;;;20.87;65.95;101057.94;;;;-58
2020/09/04 01:52:25;;;;;;;1.39;1.29;;;;;;;20.86;65.97;101058.59;;;;-58
2020/09/04 01:55:25;;;;;;;1.39;1.29;;;;;;;20.87;65.96;101062.58;;;;-58
2020/09/04 01:58:26;;;;;;;1.30;1.20;;;;;;;20.86;65.96;101058.67;;;;-58
2020/09/04 02:01:25;;;;;;;1.33;1.23;;;;;;;20.85;65.96;101062.64;;;;-58
2020/09/04 02:04:25;;;;;;;1.25;1.19;;;;;;;20.86;65.97;101056.16;;;;-58
2020/09/04 02:07:25;;;;;;;1.30;1.20;;;;;;;20.85;66.00;101057.42;;;;-58
2020/09/04 02:10:26;;;;;;;1.07;1.07;;;;;;;20.85;65.99;101056.62;;;;-58
2020/09/04 02:13:25;;;;;;;1.35;1.25;;;;;;;20.85;66.00;101057.19;;;;-58
2020/09/04 02:16:25;;;;;;;1.30;1.20;;;;;;;20.84;65.97;101057.52;;;;-58
2020/09/04 02:19:25;;;;;;;1.37;1.27;;;;;;;20.85;65.99;101053.19;;;;-58
2020/09/04 02:22:26;;;;;;;1.14;1.13;;;;;;;20.85;65.97;101047.49;;;;-58
2020/09/04 02:25:25;;;;;;;1.30;1.20;;;;;;;20.84;65.98;101046.84;;;;-58
2020/09/04 02:28:25;;;;;;;1.17;1.17;;;;;;;20.84;65.93;101047.58;;;;-58
2020/09/04 02:31:26;;;;;;;1.27;1.20;;;;;;;20.84;65.96;101045.12;;;;-58
2020/09/04 02:34:25;;;;;;;1.29;1.20;;;;;;;20.84;65.99;101043.83;;;;-58
2020/09/04 02:37:25;;;;;;;1.37;1.27;;;;;;;20.84;65.96;101044.16;;;;-58
2020/09/04 02:40:25;;;;;;;1.31;1.21;;;;;;;20.83;65.99;101046.08;;;;-58
2020/09/04 02:43:25;;;;;;;1.31;1.20;;;;;;;20.83;66.00;101043.06;;;;-58
2020/09/04 02:46:25;;;;;;;1.23;1.17;;;;;;;20.83;66.03;101046.66;;;;-58
2020/09/04 02:49:25;;;;;;;1.49;1.20;;;;;;;20.82;66.02;101041.94;;;;-58
2020/09/04 02:52:25;;;;;;;1.30;1.20;;;;;;;20.82;66.05;101041.61;;;;-58
2020/09/04 02:55:25;;;;;;;1.40;1.30;;;;;;;20.83;65.99;101043.88;;;;-58
2020/09/04 02:58:25;;;;;;;1.30;1.20;;;;;;;20.82;66.01;101042.09;;;;-58
2020/09/04 03:01:25;;;;;;;1.21;1.20;;;;;;;20.82;66.02;101042.27;;;;-58
2020/09/04 03:04:25;;;;;;;1.31;1.21;;;;;;;20.81;66.02;101042.40;;;;-58
2020/09/04 03:07:25;;;;;;;1.31;1.21;;;;;;;20.81;66.01;101038.81;;;;-58
2020/09/04 03:10:25;;;;;;;1.15;1.15;;;;;;;20.82;65.99;101038.75;;;;-58
2020/09/04 03:13:25;;;;;;;1.30;1.20;;;;;;;20.81;66.03;101037.10;;;;-58
2020/09/04 03:16:25;;;;;;;1.12;1.12;;;;;;;20.81;65.99;101039.63;;;;-58
2020/09/04 03:19:25;;;;;;;1.25;1.20;;;;;;;20.81;66.02;101042.23;;;;-58
2020/09/04 03:22:25;;;;;;;1.29;1.20;;;;;;;20.80;66.03;101040.36;;;;-58
2020/09/04 03:25:25;;;;;;;1.21;1.20;;;;;;;20.80;66.03;101040.85;;;;-58
2020/09/04 03:28:25;;;;;;;1.09;1.09;;;;;;;20.80;66.04;101044.69;;;;-58
2020/09/04 03:31:26;;;;;;;1.21;1.15;;;;;;;20.81;66.07;101045.49;;;;-58
2020/09/04 03:34:25;;;;;;;1.28;1.18;;;;;;;20.79;66.09;101044.98;;;;-58
2020/09/04 03:37:25;;;;;;;1.30;1.20;;;;;;;20.79;66.10;101046.37;;;;-58
2020/09/04 03:40:25;;;;;;;1.20;1.20;;;;;;;20.79;66.08;101045.23;;;;-58
2020/09/04 03:43:25;;;;;;;1.30;1.20;;;;;;;20.79;66.04;101045.80;;;;-58
2020/09/04 03:46:26;;;;;;;1.27;1.17;;;;;;;20.79;66.08;101049.63;;;;-58
2020/09/04 03:49:25;;;;;;;1.30;1.20;;;;;;;20.79;66.08;101050.44;;;;-58
2020/09/04 03:52:25;;;;;;;1.10;1.10;;;;;;;20.78;66.02;101049.55;;;;-58
2020/09/04 03:55:25;;;;;;;1.29;1.20;;;;;;;20.78;66.04;101052.97;;;;-56
2020/09/04 03:58:25;;;;;;;1.33;1.23;;;;;;;20.78;66.06;101053.13;;;;-56
2020/09/04 04:01:25;;;;;;;1.41;1.31;;;;;;;20.78;66.12;101052.23;;;;-56
2020/09/04 04:04:25;;;;;;;1.23;1.21;;;;;;;20.77;66.14;101054.90;;;;-56
2020/09/04 04:07:25;;;;;;;1.08;1.08;;;;;;;20.77;66.12;101057.09;;;;-56
2020/09/04 04:10:25;;;;;;;1.30;1.20;;;;;;;20.78;66.09;101057.69;;;;-56
2020/09/04 04:13:25;;;;;;;1.30;1.20;;;;;;;20.77;66.11;101055.71;;;;-56
2020/09/04 04:16:25;;;;;;;1.18;1.15;;;;;;;20.77;66.08;101063.40;;;;-55
2020/09/04 04:19:25;;;;;;;1.20;1.17;;;;;;;20.77;66.08;101057.18;;;;-56
2020/09/04 04:22:25;;;;;;;1.11;1.10;;;;;;;20.77;66.14;101058.92;;;;-56
2020/09/04 04:25:25;;;;;;;1.13;1.13;;;;;;;20.77;66.08;101061.85;;;;-56
2020/09/04 04:28:25;;;;;;;1.17;1.11;;;;;;;20.77;66.07;101061.41;;;;-56
2020/09/04 04:31:25;;;;;;;1.21;1.10;;;;;;;20.77;66.12;101059.22;;;;-58
2020/09/04 04:34:26;;;;;;;1.27;1.19;;;;;;;20.76;66.10;101062.56;;;;-56
2020/09/04 04:37:25;;;;;;;1.10;1.10;;;;;;;20.77;66.09;101065.68;;;;-56
2020/09/04 04:40:25;;;;;;;1.10;1.10;;;;;;;20.76;66.10;101067.28;;;;-56
2020/09/04 04:43:25;;;;;;;1.79;1.21;;;;;;;20.76;66.11;101069.16;;;;-56
2020/09/04 04:46:25;;;;;;;1.36;1.26;;;;;;;20.77;66.08;101072.44;;;;-56
2020/09/04 04:49:25;;;;;;;1.00;1.00;;;;;;;20.76;66.11;101073.64;;;;-56
2020/09/04 04:52:25;;;;;;;1.07;1.07;;;;;;;20.76;66.10;101073.39;;;;-56
2020/09/04 04:55:25;;;;;;;1.30;1.20;;;;;;;20.76;66.12;101078.69;;;;-56
2020/09/04 04:58:25;;;;;;;1.10;1.10;;;;;;;20.76;66.10;101077.47;;;;-56
2020/09/04 05:01:25;;;;;;;1.28;1.20;;;;;;;20.76;66.08;101085.13;;;;-56
2020/09/04 05:04:25;;;;;;;1.25;1.20;;;;;;;20.77;66.10;101085.04;;;;-56
2020/09/04 05:07:25;;;;;;;3.29;1.32;;;;;;;20.75;66.05;101079.97;;;;-57
2020/09/04 05:10:25;;;;;;;2.59;1.70;;;;;;;20.74;65.04;101092.52;;;;-57
2020/09/04 05:13:25;;;;;;;3.02;2.19;;;;;;;20.74;63.63;101090.97;;;;-56
2020/09/04 05:16:25;;;;;;;3.41;2.30;;;;;;;20.72;63.70;101096.31;;;;-57
2020/09/04 05:19:25;;;;;;;3.27;2.33;;;;;;;20.71;63.79;101100.72;;;;-57
2020/09/04 05:22:25;;;;;;;4.09;2.44;;;;;;;20.71;62.03;101103.78;;;;-57
2020/09/04 05:25:26;;;;;;;2.79;2.35;;;;;;;20.69;62.90;101106.39;;;;-56
2020/09/04 05:28:25;;;;;;;4.22;2.29;;;;;;;20.68;62.28;101105.23;;;;-57
2020/09/04 05:31:25;;;;;;;3.41;2.41;;;;;;;20.68;62.20;101104.98;;;;-57
2020/09/04 05:34:25;;;;;;;3.59;2.37;;;;;;;20.67;62.89;101106.75;;;;-57
2020/09/04 05:37:25;;;;;;;4.26;2.44;;;;;;;20.68;61.56;101102.87;;;;-56
2020/09/04 05:40:25;;;;;;;2.80;2.27;;;;;;;20.67;62.68;101107.43;;;;-56
2020/09/04 05:43:25;;;;;;;4.14;2.33;;;;;;;20.67;61.05;101107.35;;;;-56
2020/09/04 05:46:25;;;;;;;5.05;2.52;;;;;;;20.65;62.18;101108.22;;;;-56
2020/09/04 05:49:25;;;;;;;3.54;2.32;;;;;;;20.65;61.39;101107.33;;;;-57
2020/09/04 05:52:25;;;;;;;3.90;2.47;;;;;;;20.64;62.12;101110.06;;;;-57
2020/09/04 05:55:25;;;;;;;3.35;2.49;;;;;;;20.65;61.12;101111.56;;;;-57
2020/09/04 05:58:25;;;;;;;3.11;2.45;;;;;;;20.65;61.18;101117.47;;;;-53
2020/09/04 06:01:25;;;;;;;4.64;2.29;;;;;;;20.65;60.71;101116.45;;;;-59
2020/09/04 06:04:25;;;;;;;4.16;2.25;;;;;;;20.64;60.43;101119.34;;;;-59
2020/09/04 06:07:25;;;;;;;3.75;2.19;;;;;;;20.65;60.28;101116.45;;;;-59
2020/09/04 06:10:25;;;;;;;3.62;2.31;;;;;;;20.64;59.97;101120.66;;;;-59
2020/09/04 06:13:25;;;;;;;3.87;2.31;;;;;;;20.64;59.98;101119.03;;;;-59
2020/09/04 06:16:25;;;;;;;3.17;2.31;;;;;;;20.66;59.82;101121.00;;;;-59
2020/09/04 06:19:25;;;;;;;2.73;2.30;;;;;;;20.63;59.91;101124.64;;;;-59
2020/09/04 06:22:25;;;;;;;3.43;2.43;;;;;;;20.62;59.87;101127.88;;;;-59
2020/09/04 06:25:25;;;;;;;3.30;2.37;;;;;;;20.62;60.12;101129.42;;;;-61
2020/09/04 06:28:25;;;;;;;2.81;2.27;;;;;;;20.60;60.55;101129.97;;;;-60
2020/09/04 06:31:25;;;;;;;3.35;2.51;;;;;;;20.59;61.22;101131.44;;;;-59
2020/09/04 06:34:25;;;;;;;3.44;2.47;;;;;;;20.59;60.83;101131.77;;;;-59
2020/09/04 06:37:25;;;;;;;4.19;2.38;;;;;;;20.61;60.50;101131.55;;;;-59
2020/09/04 06:40:25;;;;;;;4.25;2.46;;;;;;;20.61;60.47;101134.39;;;;-59
2020/09/04 06:43:25;;;;;;;5.86;2.55;;;;;;;20.62;60.75;101137.33;;;;-54
2020/09/04 06:46:25;;;;;;;4.85;2.57;;;;;;;20.62;61.12;101138.05;;;;-57
2020/09/04 06:49:25;;;;;;;5.28;2.78;;;;;;;20.64;61.48;101140.04;;;;-56
2020/09/04 06:52:25;;;;;;;4.71;2.21;;;;;;;20.65;61.67;101138.84;;;;-52
2020/09/04 06:55:25;;;;;;;4.38;2.58;;;;;;;20.67;61.78;101139.84;;;;-54
2020/09/04 06:58:25;;;;;;;4.08;2.42;;;;;;;20.67;61.93;101137.32;;;;-56
2020/09/04 07:01:25;;;;;;;3.37;2.43;;;;;;;20.70;62.04;101147.20;;;;-55
2020/09/04 07:04:25;;;;;;;4.45;2.49;;;;;;;20.71;62.27;101143.05;;;;-56
2020/09/04 07:07:25;;;;;;;3.72;2.37;;;;;;;20.71;62.25;101145.08;;;;-57
2020/09/04 07:10:25;;;;;;;2.54;2.22;;;;;;;20.73;62.34;101145.87;;;;-54
2020/09/04 07:13:25;;;;;;;4.07;2.39;;;;;;;20.73;62.33;101145.59;;;;-55
2020/09/04 07:16:25;;;;;;;4.80;2.59;;;;;;;20.73;62.13;101149.86;;;;-57
2020/09/04 07:19:25;;;;;;;5.20;2.45;;;;;;;20.72;62.69;101150.64;;;;-57
2020/09/04 07:22:25;;;;;;;4.27;2.30;;;;;;;20.72;62.70;101153.09;;;;-57
2020/09/04 07:25:25;;;;;;;2.95;2.53;;;;;;;20.72;62.78;101158.14;;;;-58
2020/09/04 07:28:25;;;;;;;5.59;2.56;;;;;;;20.73;62.77;101161.48;;;;-55
2020/09/04 07:31:25;;;;;;;5.93;2.45;;;;;;;20.74;63.23;101171.03;;;;-57
2020/09/04 07:34:25;;;;;;;5.89;2.51;;;;;;;20.76;63.15;101171.95;;;;-51
2020/09/04 07:37:25;;;;;;;5.05;2.23;;;;;;;20.77;63.29;101170.92;;;;-53
2020/09/04 07:40:25;;;;;;;3.73;2.30;;;;;;;20.80;63.41;101170.05;;;;-57
2020/09/04 07:43:25;;;;;;;4.15;2.30;;;;;;;20.81;63.57;101168.09;;;;-51
2020/09/04 07:46:25;;;;;;;6.40;2.34;;;;;;;20.83;63.67;101166.09;;;;-56
2020/09/04 07:49:25;;;;;;;3.39;2.47;;;;;;;20.85;63.71;101162.94;;;;-52
2020/09/04 07:52:25;;;;;;;3.06;2.24;;;;;;;20.86;63.72;101166.47;;;;-55
2020/09/04 07:55:25;;;;;;;2.70;2.30;;;;;;;20.88;63.81;101170.40;;;;-54
2020/09/04 07:58:25;;;;;;;3.33;2.33;;;;;;;20.89;63.87;101174.55;;;;-52
2020/09/04 08:01:25;;;;;;;4.97;2.36;;;;;;;20.92;63.92;101173.44;;;;-55
2020/09/04 08:04:25;;;;;;;5.01;2.37;;;;;;;20.92;63.94;101169.63;;;;-52
2020/09/04 08:07:25;;;;;;;3.85;2.33;;;;;;;20.92;64.00;101164.09;;;;-58
2020/09/04 08:10:25;;;;;;;2.39;2.11;;;;;;;20.94;64.16;101171.05;;;;-53
2020/09/04 08:13:25;;;;;;;3.47;2.25;;;;;;;20.96;64.15;101170.17;;;;-58
2020/09/04 08:16:25;;;;;;;3.76;2.19;;;;;;;20.97;64.13;101176.61;;;;-54
2020/09/04 08:19:25;;;;;;;3.35;2.01;;;;;;;20.98;64.21;101183.94;;;;-54
2020/09/04 08:22:25;;;;;;;5.11;2.19;;;;;;;21.00;64.24;101186.56;;;;-54
2020/09/04 08:25:25;;;;;;;2.63;2.10;;;;;;;20.98;64.27;101184.05;;;;-53
2020/09/04 08:28:25;;;;;;;3.74;2.11;;;;;;;20.98;64.26;101182.01;;;;-53
2020/09/04 08:31:25;;;;;;;4.40;2.18;;;;;;;20.98;64.26;101180.38;;;;-52
2020/09/04 08:34:25;;;;;;;4.48;2.09;;;;;;;20.98;64.20;101182.83;;;;-51
2020/09/04 08:37:25;;;;;;;2.71;2.10;;;;;;;20.97;64.24;101174.48;;;;-50
2020/09/04 08:40:25;;;;;;;5.03;2.23;;;;;;;20.98;64.34;101180.02;;;;-44
2020/09/04 08:43:25;;;;;;;3.30;2.17;;;;;;;20.96;64.27;101181.66;;;;-44
2020/09/04 08:46:25;;;;;;;4.33;2.05;;;;;;;20.97;64.31;101181.49;;;;-44
2020/09/04 08:49:25;;;;;;;4.78;2.35;;;;;;;20.97;64.27;101179.95;;;;-44
2020/09/04 08:52:25;;;;;;;4.63;2.31;;;;;;;20.97;64.22;101177.83;;;;-44
2020/09/04 08:55:25;;;;;;;5.37;2.00;;;;;;;20.97;64.25;101166.50;;;;-44
2020/09/04 08:58:25;;;;;;;4.65;2.20;;;;;;;20.96;64.22;101168.38;;;;-44
2020/09/04 09:01:25;;;;;;;2.72;1.96;;;;;;;20.95;64.22;101174.38;;;;-44
2020/09/04 09:04:25;;;;;;;5.13;2.21;;;;;;;20.95;64.25;101172.34;;;;-46
2020/09/04 09:07:25;;;;;;;4.64;2.19;;;;;;;20.94;64.24;101169.16;;;;-44
2020/09/04 09:10:25;;;;;;;3.14;2.13;;;;;;;20.95;64.23;101160.77;;;;-44
2020/09/04 09:13:25;;;;;;;3.60;2.13;;;;;;;20.95;64.26;101159.80;;;;-44
2020/09/04 09:16:25;;;;;;;2.70;2.01;;;;;;;20.95;64.21;101158.25;;;;-44
2020/09/04 09:19:25;;;;;;;2.68;2.23;;;;;;;20.95;64.22;101158.00;;;;-45
2020/09/04 09:22:25;;;;;;;4.93;2.17;;;;;;;20.94;64.24;101158.41;;;;-45
2020/09/04 09:25:25;;;;;;;2.18;1.98;;;;;;;20.94;64.30;101156.34;;;;-44
2020/09/04 09:28:25;;;;;;;3.07;1.90;;;;;;;20.94;64.26;101148.52;;;;-44
2020/09/04 09:31:25;;;;;;;3.04;2.10;;;;;;;20.95;64.24;101154.01;;;;-45
2020/09/04 09:34:25;;;;;;;2.20;2.00;;;;;;;20.94;64.21;101149.53;;;;-44
2020/09/04 09:37:25;;;;;;;2.41;1.91;;;;;;;20.94;64.22;101144.16;;;;-44
2020/09/04 09:40:25;;;;;;;2.71;2.01;;;;;;;20.93;64.23;101147.30;;;;-44
2020/09/04 09:43:25;;;;;;;3.37;2.11;;;;;;;20.95;64.31;101149.28;;;;-47
2020/09/04 09:46:25;;;;;;;2.49;2.10;;;;;;;20.97;64.42;101150.45;;;;-52
2020/09/04 09:49:25;;;;;;;2.55;2.09;;;;;;;20.99;64.46;101142.32;;;;-50
2020/09/04 09:52:25;;;;;;;2.59;2.09;;;;;;;21.01;64.45;101137.78;;;;-47
2020/09/04 09:55:25;;;;;;;5.35;1.99;;;;;;;21.02;64.47;101134.52;;;;-48
2020/09/04 09:58:25;;;;;;;4.77;2.30;;;;;;;21.04;64.48;101133.89;;;;-50
2020/09/04 10:01:25;;;;;;;3.49;2.05;;;;;;;21.06;64.43;101133.91;;;;-53
2020/09/04 10:04:25;;;;;;;3.50;2.14;;;;;;;21.07;64.51;101126.84;;;;-51
2020/09/04 10:07:25;;;;;;;2.23;1.93;;;;;;;21.08;64.50;101126.67;;;;-55
2020/09/04 10:10:25;;;;;;;3.03;2.09;;;;;;;21.09;64.54;101125.07;;;;-49
2020/09/04 10:13:25;;;;;;;3.87;2.13;;;;;;;21.10;64.50;101119.53;;;;-46
2020/09/04 10:16:25;;;;;;;5.58;2.00;;;;;;;21.12;64.56;101118.41;;;;-48
2020/09/04 10:19:25;;;;;;;3.20;2.09;;;;;;;21.12;64.45;101117.83;;;;-47
2020/09/04 10:22:25;;;;;;;3.15;2.00;;;;;;;21.14;64.55;101117.53;;;;-47
2020/09/04 10:25:25;;;;;;;3.23;2.09;;;;;;;21.14;64.49;101111.98;;;;-46
2020/09/04 10:28:25;;;;;;;2.89;1.99;;;;;;;21.15;64.49;101102.88;;;;-47
2020/09/04 10:31:25;;;;;;;3.23;2.06;;;;;;;21.16;64.51;101101.09;;;;-48
2020/09/04 10:34:25;;;;;;;3.43;2.10;;;;;;;21.17;64.48;101103.31;;;;-49
2020/09/04 10:37:25;;;;;;;3.49;2.20;;;;;;;21.17;64.50;101098.34;;;;-58
2020/09/04 10:43:25;;;;;;;2.74;2.09;;;;;;;21.20;64.46;101091.02;;;;-49
2020/09/04 10:46:25;;;;;;;2.59;1.98;;;;;;;21.20;64.44;101089.63;;;;-49
2020/09/04 10:49:25;;;;;;;2.12;1.92;;;;;;;21.21;64.49;101089.17;;;;-48
2020/09/04 10:52:25;;;;;;;2.64;2.03;;;;;;;21.22;64.47;101084.52;;;;-59
2020/09/04 10:55:25;;;;;;;3.77;2.05;;;;;;;21.22;64.43;101080.52;;;;-45
2020/09/04 10:58:25;;;;;;;3.45;1.92;;;;;;;21.23;64.47;101077.09;;;;-51
2020/09/04 11:01:25;;;;;;;3.45;1.96;;;;;;;21.24;64.49;101074.02;;;;-50
2020/09/04 11:04:25;;;;;;;4.66;2.21;;;;;;;21.23;64.47;101071.96;;;;-48
2020/09/04 11:07:25;;;;;;;2.08;1.79;;;;;;;21.22;64.39;101072.20;;;;-48
2020/09/04 11:10:25;;;;;;;2.58;2.01;;;;;;;21.22;64.40;101068.45;;;;-49
2020/09/04 11:13:25;;;;;;;2.63;1.91;;;;;;;21.20;64.35;101062.00;;;;-50
2020/09/04 11:16:25;;;;;;;2.09;1.86;;;;;;;21.20;64.45;101055.16;;;;-49
2020/09/04 11:19:25;;;;;;;2.12;1.80;;;;;;;21.19;64.37;101053.69;;;;-57
2020/09/04 11:22:25;;;;;;;2.03;1.83;;;;;;;21.20;64.41;101051.56;;;;-57
2020/09/04 11:25:25;;;;;;;3.48;2.00;;;;;;;21.18;64.43;101048.45;;;;-57
2020/09/04 11:28:25;;;;;;;3.77;1.88;;;;;;;21.18;64.44;101047.47;;;;-57
2020/09/04 11:31:25;;;;;;;3.38;1.91;;;;;;;21.18;64.42;101040.87;;;;-57
2020/09/04 11:34:25;;;;;;;2.39;1.82;;;;;;;21.17;64.45;101032.80;;;;-58
2020/09/04 11:37:25;;;;;;;3.10;1.93;;;;;;;21.17;64.44;101041.53;;;;-57
2020/09/04 11:40:25;;;;;;;2.47;1.90;;;;;;;21.17;64.38;101044.80;;;;-57
2020/09/04 11:43:25;;;;;;;3.31;1.98;;;;;;;21.16;64.47;101041.34;;;;-57
2020/09/04 11:46:25;;;;;;;2.65;1.95;;;;;;;21.15;64.40;101036.78;;;;-57
2020/09/04 11:49:25;;;;;;;2.04;1.79;;;;;;;21.15;64.46;101031.73;;;;-58
2020/09/04 11:52:25;;;;;;;2.03;1.83;;;;;;;21.15;64.45;101038.98;;;;-57
2020/09/04 11:55:25;;;;;;;2.08;1.88;;;;;;;21.15;64.46;101035.48;;;;-58
2020/09/04 11:58:25;;;;;;;2.57;1.90;;;;;;;21.15;64.39;101024.16;;;;-57
2020/09/04 12:01:25;;;;;;;3.26;1.91;;;;;;;21.15;64.55;101025.77;;;;-50
2020/09/04 12:04:25;;;;;;;2.09;1.89;;;;;;;21.17;64.57;101027.42;;;;-60
2020/09/04 12:07:25;;;;;;;4.72;1.80;;;;;;;21.19;64.58;101022.96;;;;-57
2020/09/04 12:10:25;;;;;;;4.49;1.90;;;;;;;21.18;64.51;101017.06;;;;-48
2020/09/04 12:13:25;;;;;;;8.79;2.17;;;;;;;21.18;64.57;101008.67;;;;-53
2020/09/04 12:16:25;;;;;;;3.65;1.93;;;;;;;21.20;64.57;101007.80;;;;-54
2020/09/04 12:19:25;;;;;;;7.45;2.15;;;;;;;21.20;64.60;101008.85;;;;-52
2020/09/04 12:22:25;;;;;;;5.26;2.00;;;;;;;21.22;64.68;101015.23;;;;-48
2020/09/04 12:25:25;;;;;;;3.35;2.01;;;;;;;21.23;64.64;101011.64;;;;-50
2020/09/04 12:28:25;;;;;;;6.27;2.00;;;;;;;21.22;64.65;101006.18;;;;-51
2020/09/04 12:31:25;;;;;;;5.13;2.13;;;;;;;21.24;64.55;101000.91;;;;-52
2020/09/04 12:34:25;;;;;;;3.13;1.75;;;;;;;21.22;64.55;100995.58;;;;-52
2020/09/04 12:37:25;;;;;;;4.78;1.91;;;;;;;21.20;64.64;100990.91;;;;-51
2020/09/04 12:40:25;;;;;;;4.38;2.01;;;;;;;21.20;64.62;100991.66;;;;-50
2020/09/04 12:43:25;;;;;;;3.39;1.91;;;;;;;21.20;64.55;100980.56;;;;-50
2020/09/04 12:46:25;;;;;;;3.96;1.91;;;;;;;21.19;64.59;100978.05;;;;-50
2020/09/04 12:49:25;;;;;;;5.37;2.09;;;;;;;21.19;64.54;100973.16;;;;-50
2020/09/04 12:52:25;;;;;;;2.61;2.00;;;;;;;21.20;64.56;100966.88;;;;-50
2020/09/04 12:55:25;;;;;;;4.64;1.90;;;;;;;21.19;64.61;100962.32;;;;-51
2020/09/04 12:58:25;;;;;;;3.19;1.79;;;;;;;21.19;64.57;100960.20;;;;-50
2020/09/04 13:01:25;;;;;;;3.16;1.83;;;;;;;21.19;64.62;100956.94;;;;-50
2020/09/04 13:04:25;;;;;;;2.96;1.85;;;;;;;21.18;64.55;100958.14;;;;-50
2020/09/04 13:07:25;;;;;;;7.46;1.92;;;;;;;21.18;64.61;100951.95;;;;-50
2020/09/04 13:10:25;;;;;;;3.58;1.85;;;;;;;21.18;64.59;100946.89;;;;-50
2020/09/04 13:13:25;;;;;;;2.70;1.99;;;;;;;21.17;64.58;100950.81;;;;-50
2020/09/04 13:16:25;;;;;;;4.12;1.85;;;;;;;21.18;64.87;100944.36;;;;-49
2020/09/04 13:19:25;;;;;;;5.47;1.96;;;;;;;21.20;65.65;100940.30;;;;-60
2020/09/04 13:22:25;;;;;;;4.99;1.86;;;;;;;21.22;65.68;100942.76;;;;-48
2020/09/04 13:25:25;;;;;;;3.68;2.01;;;;;;;21.25;65.53;100940.73;;;;-53
2020/09/04 13:28:25;;;;;;;5.99;1.93;;;;;;;21.26;65.63;100940.27;;;;-56
2020/09/04 13:31:25;;;;;;;6.13;2.01;;;;;;;21.28;65.91;100932.20;;;;-47
2020/09/04 13:34:25;;;;;;;7.97;2.10;;;;;;;21.30;65.76;100925.86;;;;-48
2020/09/04 13:37:25;;;;;;;6.64;2.08;;;;;;;21.31;65.85;100928.41;;;;-58
2020/09/04 13:40:25;;;;;;;5.50;1.96;;;;;;;21.32;65.88;100927.09;;;;-51
2020/09/04 13:43:25;;;;;;;3.03;2.02;;;;;;;21.33;65.88;100915.59;;;;-50
2020/09/04 13:46:25;;;;;;;3.27;2.01;;;;;;;21.34;65.77;100916.51;;;;-47
2020/09/04 13:49:25;;;;;;;5.68;1.92;;;;;;;21.35;65.81;100910.83;;;;-52
2020/09/04 13:52:25;;;;;;;4.77;1.88;;;;;;;21.37;65.71;100909.67;;;;-47
2020/09/04 13:55:25;;;;;;;5.56;1.81;;;;;;;21.38;65.93;100908.71;;;;-50
2020/09/04 13:58:25;;;;;;;4.71;2.10;;;;;;;21.39;65.96;100911.72;;;;-57
2020/09/04 14:01:25;;;;;;;4.17;2.05;;;;;;;21.40;65.79;100906.69;;;;-48
2020/09/04 14:04:25;;;;;;;4.87;1.83;;;;;;;21.40;65.87;100902.93;;;;-45
2020/09/04 14:07:25;;;;;;;4.53;1.93;;;;;;;21.42;65.78;100897.00;;;;-45
2020/09/04 14:10:25;;;;;;;3.16;1.99;;;;;;;21.42;65.72;100895.96;;;;-45
2020/09/04 14:13:25;;;;;;;4.12;2.01;;;;;;;21.43;65.63;100894.89;;;;-45
2020/09/04 14:16:25;;;;;;;5.44;1.81;;;;;;;21.45;65.74;100884.55;;;;-47
2020/09/04 14:19:25;;;;;;;4.89;1.93;;;;;;;21.46;65.91;100881.36;;;;-48
2020/09/04 14:22:25;;;;;;;5.13;2.05;;;;;;;21.46;65.82;100879.56;;;;-52
2020/09/04 14:25:25;;;;;;;6.69;1.85;;;;;;;21.47;65.58;100878.53;;;;-48
2020/09/04 14:28:25;;;;;;;3.45;1.87;;;;;;;21.48;65.67;100872.56;;;;-48
2020/09/04 14:31:25;;;;;;;3.67;1.75;;;;;;;21.46;65.59;100872.74;;;;-48
2020/09/04 14:34:25;;;;;;;2.98;1.81;;;;;;;21.45;65.39;100868.89;;;;-48
2020/09/04 14:37:25;;;;;;;1.98;1.70;;;;;;;21.44;65.46;100868.66;;;;-48
2020/09/04 14:40:25;;;;;;;5.15;1.94;;;;;;;21.44;65.49;100866.70;;;;-48
2020/09/04 14:43:25;;;;;;;4.36;1.89;;;;;;;21.43;65.46;100866.77;;;;-47
2020/09/04 14:46:25;;;;;;;5.03;1.97;;;;;;;21.44;65.42;100865.64;;;;-51
2020/09/04 14:49:25;;;;;;;3.28;1.75;;;;;;;21.44;65.36;100865.73;;;;-51
2020/09/04 14:52:25;;;;;;;4.41;1.90;;;;;;;21.43;65.34;100860.56;;;;-48
2020/09/04 14:55:25;;;;;;;5.97;1.95;;;;;;;21.43;65.44;100855.52;;;;-49
2020/09/04 14:58:26;;;;;;;3.23;1.82;;;;;;;21.45;65.38;100855.19;;;;-50
2020/09/04 15:01:25;;;;;;;3.69;1.94;;;;;;;21.47;65.45;100851.70;;;;-52
2020/09/04 15:04:25;;;;;;;2.74;1.80;;;;;;;21.48;65.37;100847.23;;;;-50
2020/09/04 15:07:25;;;;;;;5.27;2.00;;;;;;;21.50;65.46;100844.30;;;;-47
2020/09/04 15:10:25;;;;;;;7.15;1.90;;;;;;;21.49;65.52;100842.00;;;;-55
2020/09/04 15:13:25;;;;;;;6.83;1.88;;;;;;;21.52;65.52;100838.42;;;;-54
2020/09/04 15:16:25;;;;;;;3.44;1.90;;;;;;;21.52;65.57;100836.95;;;;-57
2020/09/04 15:19:25;;;;;;;4.85;1.90;;;;;;;21.54;65.48;100837.94;;;;-53
2020/09/04 15:22:25;;;;;;;8.17;1.90;;;;;;;21.54;65.49;100834.78;;;;-60
2020/09/04 15:25:25;;;;;;;3.75;1.78;;;;;;;21.56;65.43;100836.39;;;;-53
2020/09/04 15:28:25;;;;;;;6.95;1.89;;;;;;;21.55;65.37;100833.22;;;;-56
2020/09/04 15:31:25;;;;;;;4.05;1.81;;;;;;;21.56;65.49;100824.08;;;;-59
2020/09/04 15:34:25;;;;;;;4.79;1.89;;;;;;;21.57;65.42;100824.02;;;;-59
2020/09/04 15:37:25;;;;;;;5.41;1.84;;;;;;;21.57;65.44;100820.17;;;;-58
2020/09/04 15:40:25;;;;;;;2.85;1.73;;;;;;;21.58;65.34;100814.87;;;;-55
2020/09/04 15:43:25;;;;;;;5.15;1.83;;;;;;;21.59;65.33;100808.69;;;;-53
2020/09/04 15:46:25;;;;;;;4.55;1.98;;;;;;;21.58;65.39;100805.27;;;;-55
2020/09/04 15:49:25;;;;;;;5.07;1.97;;;;;;;21.59;65.45;100802.24;;;;-52
2020/09/04 15:52:25;;;;;;;4.24;2.05;;;;;;;21.60;65.47;100803.95;;;;-51
2020/09/04 15:55:25;;;;;;;6.31;2.06;;;;;;;21.60;65.35;100804.03;;;;-59
2020/09/04 15:58:25;;;;;;;10.80;2.08;;;;;;;21.61;65.42;100802.66;;;;-56
2020/09/04 16:01:25;;;;;;;4.09;1.74;;;;;;;21.61;65.38;100799.08;;;;-54
2020/09/04 16:04:25;;;;;;;3.40;1.78;;;;;;;21.62;65.48;100802.56;;;;-57
2020/09/04 16:07:25;;;;;;;4.58;1.95;;;;;;;21.62;65.40;100799.33;;;;-53
2020/09/04 16:10:25;;;;;;;4.21;1.90;;;;;;;21.63;65.31;100798.27;;;;-54
2020/09/04 16:13:25;;;;;;;4.49;1.81;;;;;;;21.63;65.24;100796.55;;;;-59
2020/09/04 16:16:25;;;;;;;2.86;1.70;;;;;;;21.64;65.29;100800.13;;;;-55
2020/09/04 16:19:25;;;;;;;3.61;1.95;;;;;;;21.63;65.29;100802.67;;;;-54
2020/09/04 16:22:25;;;;;;;3.83;1.81;;;;;;;21.64;65.29;100801.77;;;;-56
2020/09/04 16:25:25;;;;;;;3.64;1.97;;;;;;;21.63;65.27;100800.71;;;;-54
2020/09/04 16:28:25;;;;;;;3.18;1.85;;;;;;;21.65;65.36;100799.33;;;;-58
2020/09/04 16:31:25;;;;;;;5.06;1.84;;;;;;;21.66;65.20;100792.63;;;;-59
2020/09/04 16:34:25;;;;;;;4.82;1.91;;;;;;;21.66;65.20;100790.34;;;;-53
2020/09/04 16:37:25;;;;;;;4.38;1.99;;;;;;;21.68;65.24;100781.95;;;;-57
2020/09/04 16:40:25;;;;;;;3.69;1.94;;;;;;;21.68;65.30;100780.64;;;;-61
2020/09/04 16:43:25;;;;;;;4.69;1.80;;;;;;;21.69;65.37;100774.47;;;;-51
2020/09/04 16:46:25;;;;;;;3.90;1.81;;;;;;;21.70;65.26;100777.80;;;;-51